sensor_id;sensor_type;location;lat;lon;timestamp;temperature;humidity
11264;DHT22;5689;48.798;9.070;2022-10-16T00:02:12;16.70;99.90
11264;DHT22;5689;48.798;9.070;2022-10-16T00:04:41;16.70;99.90
11264;DHT22;5689;48.798;9.070;2022-10-16T00:07:09;16.60;99.90
11264;DHT22;5689;48.798;9.070;2022-10-16T00:09:37;16.60;99.90
11264;DHT22;5689;48.798;9.070;2022-10-16T00:12:05;16.50;99.90
11264;DHT22;5689;48.798;9.070;2022-10-16T00:14:34;16.50;99.90
11264;DHT22;5689;48.798;9.070;2022-10-16T00:17:02;16.60;99.90
11264;DHT22;5689;48.798;9.070;2022-10-16T00:19:30;16.60;99.90
11264;DHT22;5689;48.798;9.070;2022-10-16T00:21:59;16.60;99.90
11264;DHT22;5689;48.798;9.070;2022-10-16T00:24:28;16.50;99.90
11264;DHT22;5689;48.798;9.070;2022-10-16T00:26:56;16.60;99.90
11264;DHT22;5689;48.798;9.070;2022-10-16T00:29:24;16.60;99.90
11264;DHT22;5689;48.798;9.070;2022-10-16T00:31:52;16.60;99.90
11264;DHT22;5689;48.798;9.070;2022-10-16T00:34:20;16.60;99.90
11264;DHT22;5689;48.798;9.070;2022-10-16T00:36:48;16.60;99.90
11264;DHT22;5689;48.798;9.070;2022-10-16T00:39:17;16.60;99.90
11264;DHT22;5689;48.798;9.070;2022-10-16T00:41:46;16.50;99.90
11264;DHT22;5689;48.798;9.070;2022-10-16T00:44:44;16.60;99.90
11264;DHT22;5689;48.798;9.070;2022-10-16T00:47:19;16.60;99.90
11264;DHT22;5689;48.798;9.070;2022-10-16T00:49:50;16.60;99.90
11264;DHT22;5689;48.798;9.070;2022-10-16T00:52:19;16.60;99.90
11264;DHT22;5689;48.798;9.070;2022-10-16T00:54:49;16.50;99.90
11264;DHT22;5689;48.798;9.070;2022-10-16T00:57:18;16.60;99.90
11264;DHT22;5689;48.798;9.070;2022-10-16T00:59:46;16.60;99.90
11264;DHT22;5689;48.798;9.070;2022-10-16T01:02:15;16.60;99.90
11264;DHT22;5689;48.798;9.070;2022-10-16T01:04:45;16.60;99.90
11264;DHT22;5689;48.798;9.070;2022-10-16T01:07:21;16.60;99.90
11264;DHT22;5689;48.798;9.070;2022-10-16T01:10:01;16.60;99.90
11264;DHT22;5689;48.798;9.070;2022-10-16T01:12:37;16.60;99.90
11264;DHT22;5689;48.798;9.070;2022-10-16T01:15:11;16.60;99.90
11264;DHT22;5689;48.798;9.070;2022-10-16T01:17:47;16.60;99.90
11264;DHT22;5689;48.798;9.070;2022-10-16T01:20:22;16.60;99.90
11264;DHT22;5689;48.798;9.070;2022-10-16T01:23:08;16.60;99.90
11264;DHT22;5689;48.798;9.070;2022-10-16T01:25:54;16.70;99.90
11264;DHT22;5689;48.798;9.070;2022-10-16T01:28:29;16.70;99.90
11264;DHT22;5689;48.798;9.070;2022-10-16T01:31:01;16.70;99.90
11264;DHT22;5689;48.798;9.070;2022-10-16T01:33:34;16.70;99.90
11264;DHT22;5689;48.798;9.070;2022-10-16T01:36:08;16.70;99.90
11264;DHT22;5689;48.798;9.070;2022-10-16T01:38:39;16.70;99.90
11264;DHT22;5689;48.798;9.070;2022-10-16T01:41:10;16.70;99.90
11264;DHT22;5689;48.798;9.070;2022-10-16T01:43:43;16.70;99.90
11264;DHT22;5689;48.798;9.070;2022-10-16T01:46:14;16.70;99.90
11264;DHT22;5689;48.798;9.070;2022-10-16T01:48:45;16.70;99.90
11264;DHT22;5689;48.798;9.070;2022-10-16T01:51:15;16.70;99.90
11264;DHT22;5689;48.798;9.070;2022-10-16T01:53:48;16.70;99.90
11264;DHT22;5689;48.798;9.070;2022-10-16T01:56:18;16.70;99.90
11264;DHT22;5689;48.798;9.070;2022-10-16T01:58:51;16.70;99.90
11264;DHT22;5689;48.798;9.070;2022-10-16T02:01:23;16.70;99.90
11264;DHT22;5689;48.798;9.070;2022-10-16T02:03:56;16.70;99.90
11264;DHT22;5689;48.798;9.070;2022-10-16T02:06:26;16.70;99.90
11264;DHT22;5689;48.798;9.070;2022-10-16T02:08:54;16.70;99.90
11264;DHT22;5689;48.798;9.070;2022-10-16T02:11:22;16.70;99.90
11264;DHT22;5689;48.798;9.070;2022-10-16T02:13:55;16.70;99.90
11264;DHT22;5689;48.798;9.070;2022-10-16T02:16:33;16.70;99.90
11264;DHT22;5689;48.798;9.070;2022-10-16T02:19:01;16.70;99.90
11264;DHT22;5689;48.798;9.070;2022-10-16T02:21:34;16.70;99.90
11264;DHT22;5689;48.798;9.070;2022-10-16T02:24:11;16.70;99.90
11264;DHT22;5689;48.798;9.070;2022-10-16T02:26:45;16.80;99.90
11264;DHT22;5689;48.798;9.070;2022-10-16T02:29:21;16.80;99.90
11264;DHT22;5689;48.798;9.070;2022-10-16T02:31:55;16.80;99.90
11264;DHT22;5689;48.798;9.070;2022-10-16T02:34:26;16.70;99.90
11264;DHT22;5689;48.798;9.070;2022-10-16T02:36:56;16.70;99.90
11264;DHT22;5689;48.798;9.070;2022-10-16T02:39:27;16.70;99.90
11264;DHT22;5689;48.798;9.070;2022-10-16T02:41:56;16.70;99.90
11264;DHT22;5689;48.798;9.070;2022-10-16T02:44:25;16.70;99.90
11264;DHT22;5689;48.798;9.070;2022-10-16T02:46:53;16.70;99.90
11264;DHT22;5689;48.798;9.070;2022-10-16T02:49:21;16.80;99.90
11264;DHT22;5689;48.798;9.070;2022-10-16T02:51:49;16.80;99.90
11264;DHT22;5689;48.798;9.070;2022-10-16T02:54:17;16.80;99.90
11264;DHT22;5689;48.798;9.070;2022-10-16T02:56:45;16.80;99.90
11264;DHT22;5689;48.798;9.070;2022-10-16T02:59:13;16.80;99.90
11264;DHT22;5689;48.798;9.070;2022-10-16T03:01:42;16.80;99.90
11264;DHT22;5689;48.798;9.070;2022-10-16T03:04:11;16.80;99.90
11264;DHT22;5689;48.798;9.070;2022-10-16T03:06:39;16.70;99.90
11264;DHT22;5689;48.798;9.070;2022-10-16T03:09:07;16.70;99.90
11264;DHT22;5689;48.798;9.070;2022-10-16T03:11:35;16.60;99.90
11264;DHT22;5689;48.798;9.070;2022-10-16T03:14:03;16.60;99.90
11264;DHT22;5689;48.798;9.070;2022-10-16T03:16:31;16.70;99.90
11264;DHT22;5689;48.798;9.070;2022-10-16T03:19:00;16.70;99.90
11264;DHT22;5689;48.798;9.070;2022-10-16T03:21:28;16.60;99.90
11264;DHT22;5689;48.798;9.070;2022-10-16T03:23:56;16.60;99.90
11264;DHT22;5689;48.798;9.070;2022-10-16T03:26:24;16.60;99.90
11264;DHT22;5689;48.798;9.070;2022-10-16T03:28:52;16.50;99.90
11264;DHT22;5689;48.798;9.070;2022-10-16T03:31:20;16.60;99.90
11264;DHT22;5689;48.798;9.070;2022-10-16T03:33:48;16.60;99.90
11264;DHT22;5689;48.798;9.070;2022-10-16T03:36:18;16.60;99.90
11264;DHT22;5689;48.798;9.070;2022-10-16T03:38:46;16.60;99.90
11264;DHT22;5689;48.798;9.070;2022-10-16T03:41:14;16.50;99.90
11264;DHT22;5689;48.798;9.070;2022-10-16T03:43:41;16.50;99.90
11264;DHT22;5689;48.798;9.070;2022-10-16T03:46:10;16.50;99.90
11264;DHT22;5689;48.798;9.070;2022-10-16T03:48:38;16.50;99.90
11264;DHT22;5689;48.798;9.070;2022-10-16T03:51:06;16.40;99.90
11264;DHT22;5689;48.798;9.070;2022-10-16T03:53:35;16.40;99.90
11264;DHT22;5689;48.798;9.070;2022-10-16T03:56:04;16.40;99.90
11264;DHT22;5689;48.798;9.070;2022-10-16T03:58:32;16.40;99.90
11264;DHT22;5689;48.798;9.070;2022-10-16T04:01:00;16.40;99.90
11264;DHT22;5689;48.798;9.070;2022-10-16T04:03:28;16.40;99.90
11264;DHT22;5689;48.798;9.070;2022-10-16T04:05:56;16.40;99.90
11264;DHT22;5689;48.798;9.070;2022-10-16T04:08:24;16.40;99.90
11264;DHT22;5689;48.798;9.070;2022-10-16T04:10:53;16.30;99.90
11264;DHT22;5689;48.798;9.070;2022-10-16T04:13:21;16.40;99.90
11264;DHT22;5689;48.798;9.070;2022-10-16T04:15:49;16.30;99.90
11264;DHT22;5689;48.798;9.070;2022-10-16T04:18:17;16.40;99.90
11264;DHT22;5689;48.798;9.070;2022-10-16T04:20:45;16.30;99.90
11264;DHT22;5689;48.798;9.070;2022-10-16T04:23:13;16.40;99.90
11264;DHT22;5689;48.798;9.070;2022-10-16T04:25:41;16.40;99.90
11264;DHT22;5689;48.798;9.070;2022-10-16T04:28:10;16.30;99.90
11264;DHT22;5689;48.798;9.070;2022-10-16T04:30:39;16.30;99.90
11264;DHT22;5689;48.798;9.070;2022-10-16T04:33:08;16.40;99.90
11264;DHT22;5689;48.798;9.070;2022-10-16T04:35:36;16.40;99.90
11264;DHT22;5689;48.798;9.070;2022-10-16T04:38:04;16.40;99.90
11264;DHT22;5689;48.798;9.070;2022-10-16T04:40:32;16.40;99.90
11264;DHT22;5689;48.798;9.070;2022-10-16T04:43:02;16.50;99.90
11264;DHT22;5689;48.798;9.070;2022-10-16T04:45:32;16.50;99.90
11264;DHT22;5689;48.798;9.070;2022-10-16T04:48:00;16.40;99.90
11264;DHT22;5689;48.798;9.070;2022-10-16T04:50:28;16.40;99.90
11264;DHT22;5689;48.798;9.070;2022-10-16T04:53:05;16.40;99.90
11264;DHT22;5689;48.798;9.070;2022-10-16T04:55:34;16.40;99.90
11264;DHT22;5689;48.798;9.070;2022-10-16T04:58:03;16.50;99.90
11264;DHT22;5689;48.798;9.070;2022-10-16T05:00:32;16.60;99.90
11264;DHT22;5689;48.798;9.070;2022-10-16T05:03:00;16.50;99.90
11264;DHT22;5689;48.798;9.070;2022-10-16T05:05:28;16.50;99.90
11264;DHT22;5689;48.798;9.070;2022-10-16T05:07:56;16.50;99.90
11264;DHT22;5689;48.798;9.070;2022-10-16T05:10:24;16.40;99.90
11264;DHT22;5689;48.798;9.070;2022-10-16T05:12:52;16.40;99.90
11264;DHT22;5689;48.798;9.070;2022-10-16T05:15:20;16.40;99.90
11264;DHT22;5689;48.798;9.070;2022-10-16T05:17:54;16.30;99.90
11264;DHT22;5689;48.798;9.070;2022-10-16T05:20:23;16.30;99.90
11264;DHT22;5689;48.798;9.070;2022-10-16T05:22:51;16.20;99.90
11264;DHT22;5689;48.798;9.070;2022-10-16T05:25:19;16.20;99.90
11264;DHT22;5689;48.798;9.070;2022-10-16T05:27:47;16.20;99.90
11264;DHT22;5689;48.798;9.070;2022-10-16T05:30:16;16.10;99.90
11264;DHT22;5689;48.798;9.070;2022-10-16T05:32:47;16.10;99.90
11264;DHT22;5689;48.798;9.070;2022-10-16T05:35:18;16.10;99.90
11264;DHT22;5689;48.798;9.070;2022-10-16T05:37:46;16.10;99.90
11264;DHT22;5689;48.798;9.070;2022-10-16T05:40:15;16.10;99.90
11264;DHT22;5689;48.798;9.070;2022-10-16T05:42:43;16.20;99.90
11264;DHT22;5689;48.798;9.070;2022-10-16T05:45:12;16.10;99.90
11264;DHT22;5689;48.798;9.070;2022-10-16T05:47:40;16.20;99.90
11264;DHT22;5689;48.798;9.070;2022-10-16T05:50:08;16.30;99.90
11264;DHT22;5689;48.798;9.070;2022-10-16T05:52:38;16.30;99.90
11264;DHT22;5689;48.798;9.070;2022-10-16T05:55:07;16.30;99.90
11264;DHT22;5689;48.798;9.070;2022-10-16T05:57:35;16.30;99.90
11264;DHT22;5689;48.798;9.070;2022-10-16T06:00:04;16.30;99.90
11264;DHT22;5689;48.798;9.070;2022-10-16T06:02:38;16.40;99.90
11264;DHT22;5689;48.798;9.070;2022-10-16T06:05:06;16.40;99.90
11264;DHT22;5689;48.798;9.070;2022-10-16T06:07:35;16.50;99.90
11264;DHT22;5689;48.798;9.070;2022-10-16T06:10:05;16.60;99.90
11264;DHT22;5689;48.798;9.070;2022-10-16T06:12:34;16.60;99.90
11264;DHT22;5689;48.798;9.070;2022-10-16T06:15:02;16.60;99.90
11264;DHT22;5689;48.798;9.070;2022-10-16T06:17:30;16.60;99.90
11264;DHT22;5689;48.798;9.070;2022-10-16T06:19:58;16.70;99.90
11264;DHT22;5689;48.798;9.070;2022-10-16T06:22:26;16.70;99.90
11264;DHT22;5689;48.798;9.070;2022-10-16T06:24:54;16.80;99.90
11264;DHT22;5689;48.798;9.070;2022-10-16T06:27:23;16.80;99.90
11264;DHT22;5689;48.798;9.070;2022-10-16T06:29:51;16.80;99.90
11264;DHT22;5689;48.798;9.070;2022-10-16T06:32:19;16.80;99.90
11264;DHT22;5689;48.798;9.070;2022-10-16T06:34:48;16.80;99.90
11264;DHT22;5689;48.798;9.070;2022-10-16T06:37:16;16.90;99.90
11264;DHT22;5689;48.798;9.070;2022-10-16T06:39:44;16.90;99.90
11264;DHT22;5689;48.798;9.070;2022-10-16T06:42:12;17.00;99.90
11264;DHT22;5689;48.798;9.070;2022-10-16T06:44:41;16.90;99.90
11264;DHT22;5689;48.798;9.070;2022-10-16T06:47:09;17.10;99.90
11264;DHT22;5689;48.798;9.070;2022-10-16T06:49:38;17.10;99.90
11264;DHT22;5689;48.798;9.070;2022-10-16T06:52:06;17.20;99.90
11264;DHT22;5689;48.798;9.070;2022-10-16T06:55:03;17.30;99.90
11264;DHT22;5689;48.798;9.070;2022-10-16T06:57:34;17.30;99.90
11264;DHT22;5689;48.798;9.070;2022-10-16T07:00:32;17.20;99.90
11264;DHT22;5689;48.798;9.070;2022-10-16T07:03:43;17.30;99.90
11264;DHT22;5689;48.798;9.070;2022-10-16T07:06:13;17.40;99.90
11264;DHT22;5689;48.798;9.070;2022-10-16T07:08:43;17.50;99.90
11264;DHT22;5689;48.798;9.070;2022-10-16T07:11:45;17.50;99.90
11264;DHT22;5689;48.798;9.070;2022-10-16T07:14:25;17.60;99.90
11264;DHT22;5689;48.798;9.070;2022-10-16T07:17:58;17.60;99.90
11264;DHT22;5689;48.798;9.070;2022-10-16T07:20:26;17.60;99.90
11264;DHT22;5689;48.798;9.070;2022-10-16T07:22:54;17.60;99.90
11264;DHT22;5689;48.798;9.070;2022-10-16T07:25:37;17.50;99.90
11264;DHT22;5689;48.798;9.070;2022-10-16T07:28:05;17.50;99.90
11264;DHT22;5689;48.798;9.070;2022-10-16T07:30:50;17.60;99.90
11264;DHT22;5689;48.798;9.070;2022-10-16T07:33:21;17.40;99.90
11264;DHT22;5689;48.798;9.070;2022-10-16T07:36:19;17.30;99.90
11264;DHT22;5689;48.798;9.070;2022-10-16T07:39:03;17.30;99.90
11264;DHT22;5689;48.798;9.070;2022-10-16T07:41:38;17.30;99.90
11264;DHT22;5689;48.798;9.070;2022-10-16T07:45:04;17.30;99.90
11264;DHT22;5689;48.798;9.070;2022-10-16T07:47:33;17.40;99.90
11264;DHT22;5689;48.798;9.070;2022-10-16T07:50:03;17.50;99.90
11264;DHT22;5689;48.798;9.070;2022-10-16T07:52:33;17.50;99.90
11264;DHT22;5689;48.798;9.070;2022-10-16T07:55:02;17.60;99.90
11264;DHT22;5689;48.798;9.070;2022-10-16T07:57:30;17.60;99.90
11264;DHT22;5689;48.798;9.070;2022-10-16T07:59:59;18.00;99.90
11264;DHT22;5689;48.798;9.070;2022-10-16T08:02:37;17.70;99.90
11264;DHT22;5689;48.798;9.070;2022-10-16T08:05:21;17.70;99.90
11264;DHT22;5689;48.798;9.070;2022-10-16T08:07:50;17.80;99.90
11264;DHT22;5689;48.798;9.070;2022-10-16T08:10:20;17.90;99.90
11264;DHT22;5689;48.798;9.070;2022-10-16T08:12:49;18.10;99.90
11264;DHT22;5689;48.798;9.070;2022-10-16T08:15:17;18.20;99.90
11264;DHT22;5689;48.798;9.070;2022-10-16T08:17:53;18.40;99.90
11264;DHT22;5689;48.798;9.070;2022-10-16T08:20:22;18.50;99.90
11264;DHT22;5689;48.798;9.070;2022-10-16T08:22:50;18.90;99.90
11264;DHT22;5689;48.798;9.070;2022-10-16T08:25:18;19.00;99.90
11264;DHT22;5689;48.798;9.070;2022-10-16T08:27:46;19.10;99.90
11264;DHT22;5689;48.798;9.070;2022-10-16T08:30:15;18.90;99.90
11264;DHT22;5689;48.798;9.070;2022-10-16T08:32:43;18.90;99.90
11264;DHT22;5689;48.798;9.070;2022-10-16T08:35:12;19.00;99.90
11264;DHT22;5689;48.798;9.070;2022-10-16T08:37:43;19.00;99.90
11264;DHT22;5689;48.798;9.070;2022-10-16T08:40:17;19.10;99.90
11264;DHT22;5689;48.798;9.070;2022-10-16T08:46:06;19.10;99.90
11264;DHT22;5689;48.798;9.070;2022-10-16T08:48:43;18.90;99.90
11264;DHT22;5689;48.798;9.070;2022-10-16T08:51:19;18.70;99.90
11264;DHT22;5689;48.798;9.070;2022-10-16T08:53:53;18.70;99.90
11264;DHT22;5689;48.798;9.070;2022-10-16T08:56:22;18.70;99.90
11264;DHT22;5689;48.798;9.070;2022-10-16T08:58:51;18.80;99.90
11264;DHT22;5689;48.798;9.070;2022-10-16T09:01:22;18.80;99.90
11264;DHT22;5689;48.798;9.070;2022-10-16T09:04:20;19.00;99.90
11264;DHT22;5689;48.798;9.070;2022-10-16T09:06:53;19.10;99.90
11264;DHT22;5689;48.798;9.070;2022-10-16T09:09:46;19.10;99.90
11264;DHT22;5689;48.798;9.070;2022-10-16T09:12:20;19.30;99.90
11264;DHT22;5689;48.798;9.070;2022-10-16T09:15:00;19.70;99.90
11264;DHT22;5689;48.798;9.070;2022-10-16T09:17:41;20.00;99.90
11264;DHT22;5689;48.798;9.070;2022-10-16T09:20:19;20.60;99.90
11264;DHT22;5689;48.798;9.070;2022-10-16T09:22:53;20.60;99.90
11264;DHT22;5689;48.798;9.070;2022-10-16T09:25:26;21.00;99.90
11264;DHT22;5689;48.798;9.070;2022-10-16T09:27:54;21.30;99.90
11264;DHT22;5689;48.798;9.070;2022-10-16T09:30:27;21.50;99.90
11264;DHT22;5689;48.798;9.070;2022-10-16T09:32:57;21.70;99.90
11264;DHT22;5689;48.798;9.070;2022-10-16T09:35:32;21.80;99.90
11264;DHT22;5689;48.798;9.070;2022-10-16T09:38:00;21.60;99.90
11264;DHT22;5689;48.798;9.070;2022-10-16T09:40:31;21.10;99.90
11264;DHT22;5689;48.798;9.070;2022-10-16T09:43:22;21.00;99.90
11264;DHT22;5689;48.798;9.070;2022-10-16T09:45:55;21.00;99.90
11264;DHT22;5689;48.798;9.070;2022-10-16T09:48:26;20.90;99.90
11264;DHT22;5689;48.798;9.070;2022-10-16T09:50:56;21.00;99.90
11264;DHT22;5689;48.798;9.070;2022-10-16T09:53:37;22.30;99.90
11264;DHT22;5689;48.798;9.070;2022-10-16T09:56:09;23.20;99.90
11264;DHT22;5689;48.798;9.070;2022-10-16T09:58:49;23.40;99.90
11264;DHT22;5689;48.798;9.070;2022-10-16T10:01:19;23.40;99.90
11264;DHT22;5689;48.798;9.070;2022-10-16T10:03:47;23.60;99.90
11264;DHT22;5689;48.798;9.070;2022-10-16T10:06:21;23.30;99.90
11264;DHT22;5689;48.798;9.070;2022-10-16T10:08:55;23.10;99.90
11264;DHT22;5689;48.798;9.070;2022-10-16T10:11:55;22.90;99.90
11264;DHT22;5689;48.798;9.070;2022-10-16T10:14:27;22.80;99.90
11264;DHT22;5689;48.798;9.070;2022-10-16T10:17:12;23.30;99.90
11264;DHT22;5689;48.798;9.070;2022-10-16T10:19:42;23.90;99.90
11264;DHT22;5689;48.798;9.070;2022-10-16T10:22:26;24.40;99.90
11264;DHT22;5689;48.798;9.070;2022-10-16T10:25:00;26.60;99.90
11264;DHT22;5689;48.798;9.070;2022-10-16T10:27:37;28.80;96.90
11264;DHT22;5689;48.798;9.070;2022-10-16T10:30:15;29.80;94.20
11264;DHT22;5689;48.798;9.070;2022-10-16T10:32:51;30.50;90.00
11264;DHT22;5689;48.798;9.070;2022-10-16T10:35:26;28.50;91.40
11264;DHT22;5689;48.798;9.070;2022-10-16T10:38:06;27.70;93.00
11264;DHT22;5689;48.798;9.070;2022-10-16T10:40:45;27.20;94.20
11264;DHT22;5689;48.798;9.070;2022-10-16T10:43:28;26.40;95.50
11264;DHT22;5689;48.798;9.070;2022-10-16T10:46:03;26.80;94.90
11264;DHT22;5689;48.798;9.070;2022-10-16T10:48:50;26.90;94.80
11264;DHT22;5689;48.798;9.070;2022-10-16T10:51:27;28.80;93.70
11264;DHT22;5689;48.798;9.070;2022-10-16T10:54:04;31.60;87.90
11264;DHT22;5689;48.798;9.070;2022-10-16T10:56:42;33.30;81.00
11264;DHT22;5689;48.798;9.070;2022-10-16T11:02:14;35.60;72.10
11264;DHT22;5689;48.798;9.070;2022-10-16T11:05:00;34.90;69.20
11264;DHT22;5689;48.798;9.070;2022-10-16T11:07:33;33.10;72.80
11264;DHT22;5689;48.798;9.070;2022-10-16T11:10:05;33.30;72.10
11264;DHT22;5689;48.798;9.070;2022-10-16T11:12:41;32.00;75.10
11264;DHT22;5689;48.798;9.070;2022-10-16T11:15:15;31.80;74.70
11264;DHT22;5689;48.798;9.070;2022-10-16T11:17:47;32.00;74.70
11264;DHT22;5689;48.798;9.070;2022-10-16T11:20:20;32.90;71.60
11264;DHT22;5689;48.798;9.070;2022-10-16T11:22:54;32.90;71.40
11264;DHT22;5689;48.798;9.070;2022-10-16T11:25:26;32.40;72.10
11264;DHT22;5689;48.798;9.070;2022-10-16T11:27:59;31.20;74.20
11264;DHT22;5689;48.798;9.070;2022-10-16T11:30:33;30.90;75.10
11264;DHT22;5689;48.798;9.070;2022-10-16T11:33:08;31.40;75.00
11264;DHT22;5689;48.798;9.070;2022-10-16T11:35:49;33.40;71.60
11264;DHT22;5689;48.798;9.070;2022-10-16T11:38:23;32.70;72.50
11264;DHT22;5689;48.798;9.070;2022-10-16T11:40:58;33.20;69.00
11264;DHT22;5689;48.798;9.070;2022-10-16T11:43:30;33.00;70.10
11264;DHT22;5689;48.798;9.070;2022-10-16T11:46:08;34.00;67.80
11264;DHT22;5689;48.798;9.070;2022-10-16T11:48:41;34.00;68.30
11264;DHT22;5689;48.798;9.070;2022-10-16T11:51:16;32.10;69.80
11264;DHT22;5689;48.798;9.070;2022-10-16T11:53:50;30.60;76.40
11264;DHT22;5689;48.798;9.070;2022-10-16T11:56:21;31.80;73.60
11264;DHT22;5689;48.798;9.070;2022-10-16T11:58:56;33.20;71.50
11264;DHT22;5689;48.798;9.070;2022-10-16T12:01:31;34.40;66.30
11264;DHT22;5689;48.798;9.070;2022-10-16T12:04:14;34.10;67.10
11264;DHT22;5689;48.798;9.070;2022-10-16T12:06:48;31.10;73.70
11264;DHT22;5689;48.798;9.070;2022-10-16T12:09:22;28.80;79.10
11264;DHT22;5689;48.798;9.070;2022-10-16T12:11:52;28.50;83.20
11264;DHT22;5689;48.798;9.070;2022-10-16T12:14:38;28.30;83.20
11264;DHT22;5689;48.798;9.070;2022-10-16T12:17:26;26.60;87.60
11264;DHT22;5689;48.798;9.070;2022-10-16T12:23:05;25.90;92.80
11264;DHT22;5689;48.798;9.070;2022-10-16T12:25:35;26.90;90.00
11264;DHT22;5689;48.798;9.070;2022-10-16T12:28:06;25.70;92.20
11264;DHT22;5689;48.798;9.070;2022-10-16T12:30:35;26.50;91.70
11264;DHT22;5689;48.798;9.070;2022-10-16T12:33:15;28.40;88.50
11264;DHT22;5689;48.798;9.070;2022-10-16T12:35:46;31.00;79.90
11264;DHT22;5689;48.798;9.070;2022-10-16T12:38:17;33.40;72.10
11264;DHT22;5689;48.798;9.070;2022-10-16T12:40:47;31.80;74.50
11264;DHT22;5689;48.798;9.070;2022-10-16T12:43:34;31.20;76.70
11264;DHT22;5689;48.798;9.070;2022-10-16T12:46:05;27.90;85.60
11264;DHT22;5689;48.798;9.070;2022-10-16T12:48:49;27.00;89.70
11264;DHT22;5689;48.798;9.070;2022-10-16T12:51:35;27.00;90.10
11264;DHT22;5689;48.798;9.070;2022-10-16T12:54:09;27.20;89.90
11264;DHT22;5689;48.798;9.070;2022-10-16T12:56:46;27.40;88.70
11264;DHT22;5689;48.798;9.070;2022-10-16T12:59:24;27.60;86.70
11264;DHT22;5689;48.798;9.070;2022-10-16T13:02:23;27.10;89.40
11264;DHT22;5689;48.798;9.070;2022-10-16T13:05:12;27.90;84.00
11264;DHT22;5689;48.798;9.070;2022-10-16T13:07:52;29.00;81.40
11264;DHT22;5689;48.798;9.070;2022-10-16T13:10:28;28.90;79.60
11264;DHT22;5689;48.798;9.070;2022-10-16T13:13:31;28.70;80.80
11264;DHT22;5689;48.798;9.070;2022-10-16T13:16:15;28.40;80.80
11264;DHT22;5689;48.798;9.070;2022-10-16T13:18:53;29.20;81.20
11264;DHT22;5689;48.798;9.070;2022-10-16T13:21:33;30.70;77.30
11264;DHT22;5689;48.798;9.070;2022-10-16T13:24:14;29.90;79.20
11264;DHT22;5689;48.798;9.070;2022-10-16T13:26:49;28.30;84.30
11264;DHT22;5689;48.798;9.070;2022-10-16T13:29:21;26.70;86.60
11264;DHT22;5689;48.798;9.070;2022-10-16T13:31:49;26.00;89.50
11264;DHT22;5689;48.798;9.070;2022-10-16T13:34:20;25.60;90.60
11264;DHT22;5689;48.798;9.070;2022-10-16T13:36:51;25.50;89.40
11264;DHT22;5689;48.798;9.070;2022-10-16T13:39:23;25.50;88.30
11264;DHT22;5689;48.798;9.070;2022-10-16T13:42:03;25.70;89.40
11264;DHT22;5689;48.798;9.070;2022-10-16T13:44:36;26.60;90.00
11264;DHT22;5689;48.798;9.070;2022-10-16T13:47:15;27.80;86.80
11264;DHT22;5689;48.798;9.070;2022-10-16T13:49:44;29.30;83.70
11264;DHT22;5689;48.798;9.070;2022-10-16T13:52:20;29.00;79.90
11264;DHT22;5689;48.798;9.070;2022-10-16T13:54:48;28.80;84.40
11264;DHT22;5689;48.798;9.070;2022-10-16T13:57:17;27.90;83.90
11264;DHT22;5689;48.798;9.070;2022-10-16T13:59:54;27.00;87.90
11264;DHT22;5689;48.798;9.070;2022-10-16T14:02:25;26.20;89.10
11264;DHT22;5689;48.798;9.070;2022-10-16T14:04:55;25.60;90.80
11264;DHT22;5689;48.798;9.070;2022-10-16T14:07:28;25.00;90.60
11264;DHT22;5689;48.798;9.070;2022-10-16T14:10:00;24.80;91.90
11264;DHT22;5689;48.798;9.070;2022-10-16T14:12:29;25.40;92.30
11264;DHT22;5689;48.798;9.070;2022-10-16T14:14:58;25.80;92.90
11264;DHT22;5689;48.798;9.070;2022-10-16T14:17:28;26.70;91.00
11264;DHT22;5689;48.798;9.070;2022-10-16T14:19:58;26.60;90.90
11264;DHT22;5689;48.798;9.070;2022-10-16T14:22:32;26.50;91.50
11264;DHT22;5689;48.798;9.070;2022-10-16T14:25:01;26.70;92.30
11264;DHT22;5689;48.798;9.070;2022-10-16T14:27:31;26.20;91.70
11264;DHT22;5689;48.798;9.070;2022-10-16T14:30:15;25.70;92.30
11264;DHT22;5689;48.798;9.070;2022-10-16T14:32:54;25.60;92.50
11264;DHT22;5689;48.798;9.070;2022-10-16T14:35:25;25.50;92.60
11264;DHT22;5689;48.798;9.070;2022-10-16T14:37:56;25.30;94.00
11264;DHT22;5689;48.798;9.070;2022-10-16T14:40:26;25.40;94.00
11264;DHT22;5689;48.798;9.070;2022-10-16T14:42:55;26.30;93.30
11264;DHT22;5689;48.798;9.070;2022-10-16T14:45:26;27.00;91.90
11264;DHT22;5689;48.798;9.070;2022-10-16T14:47:56;26.80;91.00
11264;DHT22;5689;48.798;9.070;2022-10-16T14:50:25;26.30;91.80
11264;DHT22;5689;48.798;9.070;2022-10-16T14:52:55;25.90;92.20
11264;DHT22;5689;48.798;9.070;2022-10-16T14:55:24;25.70;93.60
11264;DHT22;5689;48.798;9.070;2022-10-16T14:57:52;24.90;96.50
11264;DHT22;5689;48.798;9.070;2022-10-16T15:00:23;24.80;99.00
11264;DHT22;5689;48.798;9.070;2022-10-16T15:02:51;24.30;99.20
11264;DHT22;5689;48.798;9.070;2022-10-16T15:05:21;24.40;99.90
11264;DHT22;5689;48.798;9.070;2022-10-16T15:07:50;24.40;99.90
11264;DHT22;5689;48.798;9.070;2022-10-16T15:10:24;24.80;99.90
11264;DHT22;5689;48.798;9.070;2022-10-16T15:12:53;24.70;99.90
11264;DHT22;5689;48.798;9.070;2022-10-16T15:15:34;24.70;99.90
11264;DHT22;5689;48.798;9.070;2022-10-16T15:18:03;25.20;98.70
11264;DHT22;5689;48.798;9.070;2022-10-16T15:20:32;24.70;99.20
11264;DHT22;5689;48.798;9.070;2022-10-16T15:23:01;24.70;98.90
11264;DHT22;5689;48.798;9.070;2022-10-16T15:25:35;24.50;99.60
11264;DHT22;5689;48.798;9.070;2022-10-16T15:28:04;24.50;99.90
11264;DHT22;5689;48.798;9.070;2022-10-16T15:30:34;24.80;99.90
11264;DHT22;5689;48.798;9.070;2022-10-16T15:33:03;25.10;99.60
11264;DHT22;5689;48.798;9.070;2022-10-16T15:35:31;24.50;99.90
11264;DHT22;5689;48.798;9.070;2022-10-16T15:37:59;24.30;99.90
11264;DHT22;5689;48.798;9.070;2022-10-16T15:40:27;24.10;99.90
11264;DHT22;5689;48.798;9.070;2022-10-16T15:42:57;23.60;99.90
11264;DHT22;5689;48.798;9.070;2022-10-16T15:45:25;23.30;99.90
11264;DHT22;5689;48.798;9.070;2022-10-16T15:47:53;23.40;99.90
11264;DHT22;5689;48.798;9.070;2022-10-16T15:50:21;23.90;99.90
11264;DHT22;5689;48.798;9.070;2022-10-16T15:52:50;24.00;99.90
11264;DHT22;5689;48.798;9.070;2022-10-16T15:55:18;23.60;99.90
11264;DHT22;5689;48.798;9.070;2022-10-16T15:57:46;23.40;99.90
11264;DHT22;5689;48.798;9.070;2022-10-16T16:00:17;23.80;99.90
11264;DHT22;5689;48.798;9.070;2022-10-16T16:02:50;23.90;99.90
11264;DHT22;5689;48.798;9.070;2022-10-16T16:05:19;23.40;99.90
11264;DHT22;5689;48.798;9.070;2022-10-16T16:07:47;23.00;99.90
11264;DHT22;5689;48.798;9.070;2022-10-16T16:10:16;22.50;99.90
11264;DHT22;5689;48.798;9.070;2022-10-16T16:12:46;22.10;99.90
11264;DHT22;5689;48.798;9.070;2022-10-16T16:15:18;21.80;99.90
11264;DHT22;5689;48.798;9.070;2022-10-16T16:17:47;21.60;99.90
11264;DHT22;5689;48.798;9.070;2022-10-16T16:20:15;21.30;99.90
11264;DHT22;5689;48.798;9.070;2022-10-16T16:22:43;21.10;99.90
11264;DHT22;5689;48.798;9.070;2022-10-16T16:25:11;20.90;99.90
11264;DHT22;5689;48.798;9.070;2022-10-16T16:27:39;20.60;99.90
11264;DHT22;5689;48.798;9.070;2022-10-16T16:30:09;20.30;99.90